GLO1752 SBVT-SBBR
Flight info
| Callsign | GLO1752 |
|---|---|
| Flight time | 1h 27m |
| Altitude | 38000 |
| Route | OPLOX UZ40 OPGOL |
| Aircraft | B738/M-SDE2E3FGHIRWXY/LB1 |
Departure
| Time | 2026-05-08 14:24 |
|---|---|
| Airport | Eurico de Aguiar Salles International Airport (SBVT) |
Arrival
| Time | 2026-05-08 15:51 |
|---|---|
| Airport | Presidente Juscelino Kubitschek International Airport (SBBR) |
| Time | Latitude | Longitude | Altitude | Speed | Heading |
|---|---|---|---|---|---|
| 2026-05-08 13:52 | -20.25718 | -40.28863 | 12 ft | 0 kts | 301° |
| 2026-05-08 14:06 | -20.25719 | -40.28861 | 12 ft | 1 kts | 302° |
| 2026-05-08 14:06 | -20.25727 | -40.28847 | 11 ft | 2 kts | 317° |
| 2026-05-08 14:06 | -20.25740 | -40.28840 | 11 ft | 2 kts | 342° |
| 2026-05-08 14:07 | -20.25755 | -40.28837 | 10 ft | 2 kts | 7° |
| 2026-05-08 14:07 | -20.25768 | -40.28841 | 10 ft | 0 kts | 28° |
| 2026-05-08 14:07 | -20.25773 | -40.28845 | 10 ft | 1 kts | 33° |
| 2026-05-08 14:07 | -20.25774 | -40.28846 | 10 ft | 0 kts | 32° |
| 2026-05-08 14:11 | -20.25771 | -40.28843 | 10 ft | 2 kts | 31° |
| 2026-05-08 14:12 | -20.25749 | -40.28830 | 10 ft | 5 kts | 31° |
| 2026-05-08 14:12 | -20.25718 | -40.28802 | 10 ft | 6 kts | 60° |
| 2026-05-08 14:12 | -20.25727 | -40.28760 | 9 ft | 2 kts | 131° |
| 2026-05-08 14:12 | -20.25733 | -40.28749 | 9 ft | 0 kts | 121° |
| 2026-05-08 14:13 | -20.25733 | -40.28748 | 9 ft | 0 kts | 121° |
| 2026-05-08 14:13 | -20.25737 | -40.28742 | 9 ft | 4 kts | 121° |
| 2026-05-08 14:14 | -20.25775 | -40.28690 | 8 ft | 13 kts | 139° |
| 2026-05-08 14:14 | -20.25856 | -40.28617 | 7 ft | 15 kts | 139° |
| 2026-05-08 14:14 | -20.25934 | -40.28536 | 7 ft | 15 kts | 124° |
| 2026-05-08 14:14 | -20.25958 | -40.28428 | 7 ft | 13 kts | 91° |
| 2026-05-08 14:15 | -20.25972 | -40.28331 | 7 ft | 12 kts | 102° |
| 2026-05-08 14:15 | -20.25969 | -40.28243 | 8 ft | 11 kts | 70° |
| 2026-05-08 14:15 | -20.25950 | -40.28160 | 9 ft | 12 kts | 94° |
| 2026-05-08 14:15 | -20.26034 | -40.28112 | 8 ft | 18 kts | 175° |
| 2026-05-08 14:16 | -20.26177 | -40.28096 | 8 ft | 23 kts | 173° |
| 2026-05-08 14:16 | -20.26356 | -40.28068 | 9 ft | 27 kts | 168° |
| 2026-05-08 14:16 | -20.26539 | -40.28031 | 11 ft | 24 kts | 168° |
| 2026-05-08 14:16 | -20.26674 | -40.28007 | 13 ft | 16 kts | 155° |
| 2026-05-08 14:17 | -20.26683 | -40.27931 | 13 ft | 12 kts | 23° |
| 2026-05-08 14:17 | -20.26619 | -40.27897 | 13 ft | 0 kts | 62° |
| 2026-05-08 14:17 | -20.26618 | -40.27897 | 13 ft | 0 kts | 62° |
| 2026-05-08 14:19 | -20.26617 | -40.27895 | 13 ft | 0 kts | 62° |
| 2026-05-08 14:19 | -20.26616 | -40.27893 | 13 ft | 0 kts | 62° |
| 2026-05-08 14:20 | -20.26615 | -40.27890 | 13 ft | 0 kts | 62° |
| 2026-05-08 14:20 | -20.26614 | -40.27889 | 13 ft | 0 kts | 63° |
| 2026-05-08 14:20 | -20.26613 | -40.27886 | 13 ft | 0 kts | 63° |
| 2026-05-08 14:20 | -20.26612 | -40.27884 | 13 ft | 0 kts | 63° |
| 2026-05-08 14:21 | -20.26611 | -40.27882 | 13 ft | 0 kts | 63° |
| 2026-05-08 14:21 | -20.26610 | -40.27880 | 13 ft | 0 kts | 63° |
| 2026-05-08 14:21 | -20.26609 | -40.27877 | 13 ft | 0 kts | 63° |
| 2026-05-08 14:21 | -20.26608 | -40.27875 | 13 ft | 0 kts | 63° |
| 2026-05-08 14:22 | -20.26596 | -40.27858 | 13 ft | 9 kts | 46° |
| 2026-05-08 14:22 | -20.26534 | -40.27860 | 12 ft | 6 kts | 349° |
| 2026-05-08 14:22 | -20.26532 | -40.27860 | 12 ft | 0 kts | 350° |
| 2026-05-08 14:22 | -20.26509 | -40.27864 | 12 ft | 19 kts | 350° |
| 2026-05-08 14:23 | -20.26047 | -40.27932 | 9 ft | 111 kts | 353° |
| 2026-05-08 14:23 | -20.25051 | -40.28092 | 87 ft | 156 kts | 350° |
| 2026-05-08 14:23 | -20.24025 | -40.28328 | 424 ft | 146 kts | 348° |
| 2026-05-08 14:23 | -20.23021 | -40.28575 | 409 ft | 145 kts | 357° |
| 2026-05-08 14:24 | -20.21963 | -40.28451 | 941 ft | 163 kts | 14° |
| 2026-05-08 14:24 | -20.20891 | -40.27925 | 1439 ft | 184 kts | 45° |
| 2026-05-08 14:24 | -20.20081 | -40.26825 | 1904 ft | 196 kts | 53° |
| 2026-05-08 14:24 | -20.19187 | -40.25643 | 2259 ft | 210 kts | 50° |
| 2026-05-08 14:25 | -20.18236 | -40.24447 | 2814 ft | 215 kts | 50° |
| 2026-05-08 14:25 | -20.17285 | -40.23239 | 3637 ft | 216 kts | 50° |
| 2026-05-08 14:25 | -20.16174 | -40.22107 | 4187 ft | 234 kts | 31° |
| 2026-05-08 14:25 | -20.14532 | -40.21688 | 4477 ft | 263 kts | 355° |
| 2026-05-08 14:26 | -20.12834 | -40.22435 | 5159 ft | 275 kts | 321° |
| 2026-05-08 14:26 | -20.11745 | -40.24124 | 5855 ft | 285 kts | 287° |
| 2026-05-08 14:26 | -20.11515 | -40.26202 | 6721 ft | 286 kts | 271° |
| 2026-05-08 14:26 | -20.11265 | -40.28313 | 7091 ft | 296 kts | 285° |
| 2026-05-08 14:27 | -20.10600 | -40.30375 | 7125 ft | 292 kts | 291° |
| 2026-05-08 14:27 | -20.09873 | -40.32392 | 7128 ft | 290 kts | 291° |
| 2026-05-08 14:27 | -20.09155 | -40.34391 | 7128 ft | 290 kts | 291° |
| 2026-05-08 14:27 | -20.08426 | -40.36384 | 7128 ft | 290 kts | 291° |
| 2026-05-08 14:28 | -20.07682 | -40.38399 | 7128 ft | 290 kts | 291° |
| 2026-05-08 14:28 | -20.06962 | -40.40413 | 7180 ft | 301 kts | 289° |
| 2026-05-08 14:28 | -20.06270 | -40.42541 | 7990 ft | 303 kts | 289° |
| 2026-05-08 14:28 | -20.05590 | -40.44612 | 8938 ft | 302 kts | 289° |
| 2026-05-08 14:29 | -20.04896 | -40.46710 | 9814 ft | 304 kts | 288° |
| 2026-05-08 14:29 | -20.04192 | -40.48842 | 10104 ft | 308 kts | 288° |
| 2026-05-08 14:29 | -20.03485 | -40.50980 | 10160 ft | 302 kts | 288° |
| 2026-05-08 14:29 | -20.02794 | -40.53066 | 10691 ft | 300 kts | 288° |
| 2026-05-08 14:30 | -20.02101 | -40.55159 | 11285 ft | 307 kts | 288° |
| 2026-05-08 14:30 | -20.01390 | -40.57307 | 11884 ft | 309 kts | 288° |
| 2026-05-08 14:30 | -20.00675 | -40.59465 | 12483 ft | 311 kts | 288° |
| 2026-05-08 14:30 | -19.99949 | -40.61656 | 13088 ft | 314 kts | 288° |
| 2026-05-08 14:31 | -19.99222 | -40.63847 | 13687 ft | 317 kts | 288° |
| 2026-05-08 14:31 | -19.98472 | -40.66111 | 14126 ft | 333 kts | 288° |
| 2026-05-08 14:31 | -19.97680 | -40.68498 | 14244 ft | 359 kts | 289° |
| 2026-05-08 14:32 | -19.95974 | -40.73629 | 15435 ft | 376 kts | 289° |
| 2026-05-08 14:32 | -19.95103 | -40.76247 | 16174 ft | 380 kts | 289° |
| 2026-05-08 14:32 | -19.94216 | -40.78911 | 16858 ft | 384 kts | 289° |
| 2026-05-08 14:32 | -19.93321 | -40.81601 | 17547 ft | 388 kts | 289° |
| 2026-05-08 14:33 | -19.92424 | -40.84291 | 18218 ft | 391 kts | 289° |
| 2026-05-08 14:33 | -19.91517 | -40.87014 | 18875 ft | 394 kts | 289° |
| 2026-05-08 14:33 | -19.90591 | -40.89791 | 19527 ft | 397 kts | 288° |
| 2026-05-08 14:33 | -19.89675 | -40.92535 | 20159 ft | 400 kts | 288° |
| 2026-05-08 14:34 | -19.88737 | -40.95346 | 20779 ft | 402 kts | 288° |
| 2026-05-08 14:34 | -19.87806 | -40.98132 | 21379 ft | 405 kts | 288° |
| 2026-05-08 14:34 | -19.86861 | -41.00930 | 21953 ft | 407 kts | 289° |
| 2026-05-08 14:34 | -19.85729 | -41.03715 | 22517 ft | 410 kts | 295° |
| 2026-05-08 14:35 | -19.84376 | -41.06382 | 23052 ft | 413 kts | 298° |
| 2026-05-08 14:35 | -19.82984 | -41.09042 | 23547 ft | 416 kts | 297° |
| 2026-05-08 14:35 | -19.81582 | -41.11769 | 24038 ft | 419 kts | 297° |
| 2026-05-08 14:35 | -19.80189 | -41.14473 | 24496 ft | 422 kts | 297° |
| 2026-05-08 14:36 | -19.78771 | -41.17202 | 25003 ft | 424 kts | 298° |
| 2026-05-08 14:36 | -19.77338 | -41.19949 | 25464 ft | 426 kts | 298° |
| 2026-05-08 14:36 | -19.75905 | -41.22686 | 25901 ft | 429 kts | 298° |
| 2026-05-08 14:36 | -19.74448 | -41.25464 | 26326 ft | 431 kts | 298° |
| 2026-05-08 14:37 | -19.72985 | -41.28253 | 26744 ft | 434 kts | 298° |
| 2026-05-08 14:37 | -19.71528 | -41.31030 | 27137 ft | 436 kts | 298° |
| 2026-05-08 14:37 | -19.70041 | -41.33860 | 27534 ft | 438 kts | 298° |
| 2026-05-08 14:37 | -19.68563 | -41.36672 | 27908 ft | 441 kts | 298° |
| 2026-05-08 14:38 | -19.67067 | -41.39516 | 28278 ft | 443 kts | 298° |
| 2026-05-08 14:38 | -19.65579 | -41.42344 | 28635 ft | 445 kts | 298° |
| 2026-05-08 14:38 | -19.64070 | -41.45208 | 28984 ft | 447 kts | 298° |
| 2026-05-08 14:38 | -19.62550 | -41.48096 | 29323 ft | 449 kts | 298° |
| 2026-05-08 14:39 | -19.61033 | -41.50975 | 29649 ft | 451 kts | 298° |
| 2026-05-08 14:39 | -19.59499 | -41.53885 | 30011 ft | 452 kts | 298° |
| 2026-05-08 14:39 | -19.57970 | -41.56784 | 30551 ft | 449 kts | 298° |
| 2026-05-08 14:39 | -19.56455 | -41.59655 | 30999 ft | 447 kts | 298° |
| 2026-05-08 14:40 | -19.54949 | -41.62507 | 31416 ft | 446 kts | 298° |
| 2026-05-08 14:40 | -19.53435 | -41.65373 | 31854 ft | 444 kts | 298° |
| 2026-05-08 14:40 | -19.51915 | -41.68249 | 32265 ft | 443 kts | 299° |
| 2026-05-08 14:40 | -19.50413 | -41.71084 | 32668 ft | 442 kts | 299° |
| 2026-05-08 14:41 | -19.48909 | -41.73902 | 33051 ft | 441 kts | 299° |
| 2026-05-08 14:41 | -19.47416 | -41.76712 | 33430 ft | 440 kts | 299° |
| 2026-05-08 14:41 | -19.45931 | -41.79545 | 33882 ft | 437 kts | 298° |
| 2026-05-08 14:41 | -19.44455 | -41.82367 | 34215 ft | 437 kts | 298° |
| 2026-05-08 14:42 | -19.42984 | -41.85141 | 34500 ft | 438 kts | 299° |
| 2026-05-08 14:42 | -19.41495 | -41.87936 | 34875 ft | 436 kts | 299° |
| 2026-05-08 14:42 | -19.40012 | -41.90734 | 35193 ft | 436 kts | 298° |
| 2026-05-08 14:42 | -19.38537 | -41.93558 | 35528 ft | 435 kts | 298° |
| 2026-05-08 14:43 | -19.37454 | -41.95640 | 35768 ft | 435 kts | 298° |
| 2026-05-08 14:44 | -19.36843 | -41.96818 | 35902 ft | 434 kts | 298° |
| 2026-05-08 14:44 | -19.35397 | -41.99617 | 36211 ft | 434 kts | 298° |
| 2026-05-08 14:45 | -19.33960 | -42.02391 | 36491 ft | 433 kts | 298° |
| 2026-05-08 14:45 | -19.32481 | -42.05149 | 36753 ft | 434 kts | 300° |
| 2026-05-08 14:45 | -19.30929 | -42.07888 | 37024 ft | 434 kts | 301° |
| 2026-05-08 14:45 | -19.29365 | -42.10623 | 37283 ft | 434 kts | 300° |
| 2026-05-08 14:46 | -19.27817 | -42.13360 | 37529 ft | 434 kts | 300° |
| 2026-05-08 14:46 | -19.26291 | -42.16074 | 37773 ft | 434 kts | 300° |
| 2026-05-08 14:46 | -19.24746 | -42.18818 | 38008 ft | 434 kts | 300° |
| 2026-05-08 14:46 | -19.23210 | -42.21541 | 38123 ft | 436 kts | 300° |
| 2026-05-08 14:47 | -19.20095 | -42.27065 | 38127 ft | 436 kts | 300° |
| 2026-05-08 14:47 | -19.17017 | -42.32522 | 38128 ft | 433 kts | 300° |
| 2026-05-08 14:48 | -19.13929 | -42.37993 | 38128 ft | 433 kts | 300° |
| 2026-05-08 14:48 | -19.10851 | -42.43443 | 38128 ft | 434 kts | 300° |
| 2026-05-08 14:49 | -19.07886 | -42.48980 | 38128 ft | 434 kts | 297° |
| 2026-05-08 14:49 | -19.04998 | -42.54583 | 38128 ft | 433 kts | 298° |
| 2026-05-08 14:50 | -19.02109 | -42.60109 | 38128 ft | 434 kts | 298° |
| 2026-05-08 14:50 | -18.99188 | -42.65700 | 38128 ft | 436 kts | 298° |
| 2026-05-08 14:51 | -18.96240 | -42.71331 | 38128 ft | 440 kts | 298° |
| 2026-05-08 14:51 | -18.93279 | -42.76980 | 38128 ft | 444 kts | 298° |
| 2026-05-08 14:52 | -18.88637 | -42.85501 | 38128 ft | 449 kts | 300° |
| 2026-05-08 14:53 | -18.85488 | -42.91201 | 38128 ft | 450 kts | 300° |
| 2026-05-08 14:53 | -18.82359 | -42.96874 | 38128 ft | 449 kts | 300° |
| 2026-05-08 14:54 | -18.79232 | -43.02537 | 38128 ft | 447 kts | 300° |
| 2026-05-08 14:54 | -18.76148 | -43.08219 | 38128 ft | 444 kts | 299° |
| 2026-05-08 14:55 | -18.73122 | -43.13874 | 38128 ft | 442 kts | 299° |
| 2026-05-08 14:55 | -18.70112 | -43.19468 | 38128 ft | 439 kts | 299° |
| 2026-05-08 14:56 | -18.67117 | -43.25047 | 38142 ft | 438 kts | 298° |
| 2026-05-08 14:56 | -18.64166 | -43.30643 | 38161 ft | 439 kts | 298° |
| 2026-05-08 14:57 | -18.61189 | -43.36273 | 38180 ft | 440 kts | 298° |
| 2026-05-08 14:57 | -18.58209 | -43.41908 | 38199 ft | 439 kts | 298° |
| 2026-05-08 14:58 | -18.55244 | -43.47509 | 38209 ft | 439 kts | 298° |
| 2026-05-08 14:58 | -18.52281 | -43.53099 | 38209 ft | 439 kts | 298° |
| 2026-05-08 14:59 | -18.49330 | -43.58702 | 38209 ft | 439 kts | 297° |
| 2026-05-08 14:59 | -18.44983 | -43.67188 | 38209 ft | 439 kts | 298° |
| 2026-05-08 15:00 | -18.42061 | -43.72844 | 38209 ft | 439 kts | 298° |
| 2026-05-08 15:00 | -18.39144 | -43.78490 | 38209 ft | 439 kts | 298° |
| 2026-05-08 15:01 | -18.36241 | -43.84101 | 38209 ft | 439 kts | 298° |
| 2026-05-08 15:01 | -18.33319 | -43.89745 | 38209 ft | 439 kts | 298° |
| 2026-05-08 15:02 | -18.30412 | -43.95368 | 38209 ft | 439 kts | 298° |
| 2026-05-08 15:02 | -18.27499 | -44.00995 | 38209 ft | 439 kts | 298° |
| 2026-05-08 15:03 | -18.24585 | -44.06617 | 38209 ft | 439 kts | 298° |
| 2026-05-08 15:03 | -18.21671 | -44.12236 | 38206 ft | 439 kts | 298° |
| 2026-05-08 15:04 | -18.18737 | -44.17887 | 38201 ft | 439 kts | 298° |
| 2026-05-08 15:04 | -18.15816 | -44.23508 | 38196 ft | 439 kts | 298° |
| 2026-05-08 15:05 | -18.12901 | -44.29112 | 38191 ft | 439 kts | 298° |
| 2026-05-08 15:05 | -18.09976 | -44.34732 | 38186 ft | 439 kts | 298° |
| 2026-05-08 15:06 | -18.07058 | -44.40333 | 38182 ft | 439 kts | 298° |
| 2026-05-08 15:06 | -18.04116 | -44.45942 | 38182 ft | 439 kts | 298° |
| 2026-05-08 15:07 | -18.01112 | -44.51509 | 38182 ft | 439 kts | 299° |
| 2026-05-08 15:07 | -17.98100 | -44.57106 | 38182 ft | 439 kts | 298° |
| 2026-05-08 15:08 | -17.95615 | -44.61724 | 38182 ft | 439 kts | 298° |
| 2026-05-08 15:08 | -17.92114 | -44.68225 | 38182 ft | 439 kts | 299° |
| 2026-05-08 15:09 | -17.89659 | -44.72778 | 38182 ft | 439 kts | 299° |
| 2026-05-08 15:09 | -17.86681 | -44.78352 | 38182 ft | 439 kts | 298° |
| 2026-05-08 15:10 | -17.83797 | -44.83995 | 38182 ft | 439 kts | 298° |
| 2026-05-08 15:10 | -17.80907 | -44.89603 | 38182 ft | 439 kts | 298° |
| 2026-05-08 15:11 | -17.77991 | -44.95255 | 38182 ft | 438 kts | 297° |
| 2026-05-08 15:11 | -17.75111 | -45.00830 | 38182 ft | 436 kts | 297° |
| 2026-05-08 15:12 | -17.72250 | -45.06362 | 38182 ft | 432 kts | 297° |
| 2026-05-08 15:12 | -17.69396 | -45.11876 | 38182 ft | 429 kts | 297° |
| 2026-05-08 15:13 | -17.66549 | -45.17362 | 38182 ft | 427 kts | 298° |
| 2026-05-08 15:13 | -17.63444 | -45.22659 | 38182 ft | 429 kts | 301° |
| 2026-05-08 15:14 | -17.60261 | -45.27938 | 38182 ft | 430 kts | 300° |
| 2026-05-08 15:14 | -17.57120 | -45.33213 | 38182 ft | 429 kts | 301° |
| 2026-05-08 15:15 | -17.53959 | -45.38510 | 38182 ft | 429 kts | 301° |
| 2026-05-08 15:15 | -17.50807 | -45.43794 | 38182 ft | 429 kts | 301° |
| 2026-05-08 15:16 | -17.47646 | -45.49092 | 38182 ft | 429 kts | 301° |
| 2026-05-08 15:16 | -17.44497 | -45.54367 | 38182 ft | 429 kts | 301° |
| 2026-05-08 15:17 | -17.41349 | -45.59638 | 38182 ft | 429 kts | 300° |
| 2026-05-08 15:17 | -17.38179 | -45.64939 | 38182 ft | 429 kts | 301° |
| 2026-05-08 15:18 | -17.35015 | -45.70228 | 38182 ft | 429 kts | 301° |
| 2026-05-08 15:18 | -17.31858 | -45.75501 | 38182 ft | 429 kts | 301° |
| 2026-05-08 15:19 | -17.28679 | -45.80803 | 38182 ft | 429 kts | 301° |
| 2026-05-08 15:19 | -17.25511 | -45.86076 | 38183 ft | 429 kts | 301° |
| 2026-05-08 15:20 | -17.22359 | -45.91322 | 38189 ft | 429 kts | 301° |
| 2026-05-08 15:20 | -17.19183 | -45.96603 | 38195 ft | 429 kts | 301° |
| 2026-05-08 15:21 | -17.16010 | -46.01874 | 38201 ft | 429 kts | 301° |
| 2026-05-08 15:21 | -17.12840 | -46.07137 | 38207 ft | 429 kts | 301° |
| 2026-05-08 15:22 | -17.09676 | -46.12384 | 38209 ft | 430 kts | 301° |
| 2026-05-08 15:22 | -17.06482 | -46.17679 | 38209 ft | 431 kts | 301° |
| 2026-05-08 15:23 | -17.03281 | -46.22982 | 38209 ft | 434 kts | 300° |
| 2026-05-08 15:23 | -17.00077 | -46.28285 | 38209 ft | 436 kts | 300° |
| 2026-05-08 15:24 | -16.96844 | -46.33631 | 38209 ft | 438 kts | 300° |
| 2026-05-08 15:24 | -16.93584 | -46.39017 | 38209 ft | 439 kts | 300° |
| 2026-05-08 15:25 | -16.90331 | -46.44389 | 38209 ft | 439 kts | 300° |
| 2026-05-08 15:25 | -16.87074 | -46.49761 | 38209 ft | 438 kts | 300° |
| 2026-05-08 15:26 | -16.83823 | -46.55120 | 38209 ft | 438 kts | 300° |
| 2026-05-08 15:26 | -16.80488 | -46.60457 | 38209 ft | 439 kts | 302° |
| 2026-05-08 15:27 | -16.77051 | -46.65679 | 38209 ft | 439 kts | 302° |
| 2026-05-08 15:27 | -16.73611 | -46.70968 | 38209 ft | 439 kts | 302° |
| 2026-05-08 15:28 | -16.70191 | -46.76218 | 38209 ft | 439 kts | 302° |
| 2026-05-08 15:28 | -16.66776 | -46.81461 | 38209 ft | 439 kts | 302° |
| 2026-05-08 15:29 | -16.63343 | -46.86727 | 38209 ft | 437 kts | 302° |
| 2026-05-08 15:29 | -16.59940 | -46.91945 | 38204 ft | 435 kts | 302° |
| 2026-05-08 15:30 | -16.56559 | -46.97126 | 37862 ft | 433 kts | 303° |
| 2026-05-08 15:30 | -16.54853 | -46.99742 | 36986 ft | 437 kts | 303° |
| 2026-05-08 15:30 | -16.53172 | -47.02314 | 36534 ft | 431 kts | 303° |
| 2026-05-08 15:31 | -16.51480 | -47.04904 | 35912 ft | 429 kts | 303° |
| 2026-05-08 15:31 | -16.49810 | -47.07458 | 35370 ft | 425 kts | 303° |
| 2026-05-08 15:31 | -16.48176 | -47.09958 | 34833 ft | 422 kts | 303° |
| 2026-05-08 15:31 | -16.46534 | -47.12468 | 34290 ft | 418 kts | 303° |
| 2026-05-08 15:32 | -16.44905 | -47.14958 | 33743 ft | 415 kts | 303° |
| 2026-05-08 15:32 | -16.43279 | -47.17442 | 33176 ft | 412 kts | 303° |
| 2026-05-08 15:32 | -16.41684 | -47.19879 | 32626 ft | 409 kts | 303° |
| 2026-05-08 15:32 | -16.40041 | -47.22251 | 32072 ft | 407 kts | 307° |
| 2026-05-08 15:33 | -16.38191 | -47.24488 | 31514 ft | 405 kts | 313° |
| 2026-05-08 15:33 | -16.36116 | -47.26426 | 30974 ft | 403 kts | 320° |
| 2026-05-08 15:33 | -16.33927 | -47.28239 | 30439 ft | 400 kts | 320° |
| 2026-05-08 15:33 | -16.31780 | -47.30048 | 29897 ft | 398 kts | 319° |
| 2026-05-08 15:34 | -16.29669 | -47.31854 | 29367 ft | 395 kts | 320° |
| 2026-05-08 15:34 | -16.27559 | -47.33643 | 28835 ft | 393 kts | 320° |
| 2026-05-08 15:34 | -16.25440 | -47.35425 | 28311 ft | 390 kts | 320° |
| 2026-05-08 15:34 | -16.23357 | -47.37174 | 27795 ft | 387 kts | 320° |
| 2026-05-08 15:35 | -16.21261 | -47.38932 | 27270 ft | 384 kts | 320° |
| 2026-05-08 15:35 | -16.19185 | -47.40671 | 26763 ft | 381 kts | 320° |
| 2026-05-08 15:35 | -16.17136 | -47.42385 | 26250 ft | 379 kts | 320° |
| 2026-05-08 15:35 | -16.15106 | -47.44082 | 25747 ft | 376 kts | 321° |
| 2026-05-08 15:36 | -16.13077 | -47.45777 | 25248 ft | 374 kts | 321° |
| 2026-05-08 15:36 | -16.11741 | -47.46892 | 24917 ft | 372 kts | 321° |
| 2026-05-08 15:36 | -16.09061 | -47.49129 | 24263 ft | 368 kts | 321° |
| 2026-05-08 15:36 | -16.07078 | -47.50783 | 23762 ft | 366 kts | 321° |
| 2026-05-08 15:37 | -16.05099 | -47.52433 | 23273 ft | 363 kts | 321° |
| 2026-05-08 15:37 | -16.03148 | -47.54059 | 22794 ft | 361 kts | 321° |
| 2026-05-08 15:37 | -16.01190 | -47.55691 | 22315 ft | 358 kts | 321° |
| 2026-05-08 15:37 | -15.99298 | -47.57355 | 21818 ft | 356 kts | 315° |
| 2026-05-08 15:38 | -15.97722 | -47.59288 | 21327 ft | 354 kts | 303° |
| 2026-05-08 15:38 | -15.96610 | -47.61536 | 20880 ft | 350 kts | 290° |
| 2026-05-08 15:38 | -15.95951 | -47.63948 | 20386 ft | 347 kts | 279° |
| 2026-05-08 15:38 | -15.95767 | -47.66431 | 19893 ft | 344 kts | 267° |
| 2026-05-08 15:39 | -15.95940 | -47.68888 | 19437 ft | 341 kts | 264° |
| 2026-05-08 15:39 | -15.96116 | -47.71342 | 18946 ft | 340 kts | 265° |
| 2026-05-08 15:39 | -15.96257 | -47.73790 | 18475 ft | 338 kts | 266° |
| 2026-05-08 15:39 | -15.96404 | -47.76205 | 18007 ft | 336 kts | 265° |
| 2026-05-08 15:40 | -15.96558 | -47.78621 | 17532 ft | 334 kts | 265° |
| 2026-05-08 15:40 | -15.96709 | -47.80989 | 17098 ft | 331 kts | 266° |
| 2026-05-08 15:40 | -15.96859 | -47.83367 | 16615 ft | 330 kts | 266° |
| 2026-05-08 15:40 | -15.97010 | -47.85741 | 16166 ft | 328 kts | 266° |
| 2026-05-08 15:41 | -15.97159 | -47.88096 | 15734 ft | 325 kts | 266° |
| 2026-05-08 15:41 | -15.97307 | -47.90429 | 15269 ft | 323 kts | 266° |
| 2026-05-08 15:41 | -15.97454 | -47.92750 | 14824 ft | 321 kts | 266° |
| 2026-05-08 15:41 | -15.97599 | -47.95043 | 14381 ft | 319 kts | 266° |
| 2026-05-08 15:42 | -15.97744 | -47.97335 | 13953 ft | 317 kts | 266° |
| 2026-05-08 15:42 | -15.97889 | -47.99603 | 13513 ft | 315 kts | 266° |
| 2026-05-08 15:42 | -15.98031 | -48.01884 | 13090 ft | 313 kts | 266° |
| 2026-05-08 15:42 | -15.98164 | -48.04114 | 12647 ft | 311 kts | 266° |
| 2026-05-08 15:43 | -15.98302 | -48.06366 | 12216 ft | 309 kts | 266° |
| 2026-05-08 15:43 | -15.98445 | -48.08553 | 11827 ft | 306 kts | 266° |
| 2026-05-08 15:43 | -15.98597 | -48.10754 | 11362 ft | 306 kts | 266° |
| 2026-05-08 15:43 | -15.98742 | -48.12951 | 10938 ft | 304 kts | 266° |
| 2026-05-08 15:44 | -15.98846 | -48.15154 | 10441 ft | 304 kts | 273° |
| 2026-05-08 15:44 | -15.98366 | -48.17249 | 10146 ft | 294 kts | 300° |
| 2026-05-08 15:44 | -15.97086 | -48.18821 | 9821 ft | 287 kts | 326° |
| 2026-05-08 15:44 | -15.95297 | -48.19691 | 9149 ft | 292 kts | 343° |
| 2026-05-08 15:45 | -15.93353 | -48.20296 | 8575 ft | 294 kts | 347° |
| 2026-05-08 15:45 | -15.91386 | -48.20736 | 8410 ft | 280 kts | 357° |
| 2026-05-08 15:45 | -15.89551 | -48.20417 | 8315 ft | 262 kts | 29° |
| 2026-05-08 15:45 | -15.88296 | -48.19176 | 8164 ft | 248 kts | 63° |
| 2026-05-08 15:46 | -15.87923 | -48.17482 | 7934 ft | 242 kts | 88° |
| 2026-05-08 15:46 | -15.87834 | -48.15737 | 7679 ft | 238 kts | 85° |
| 2026-05-08 15:46 | -15.87700 | -48.14050 | 7496 ft | 230 kts | 85° |
| 2026-05-08 15:46 | -15.87598 | -48.12418 | 7238 ft | 224 kts | 85° |
| 2026-05-08 15:47 | -15.87491 | -48.10823 | 6937 ft | 219 kts | 86° |
| 2026-05-08 15:47 | -15.87396 | -48.09260 | 6638 ft | 215 kts | 85° |
| 2026-05-08 15:47 | -15.87297 | -48.07750 | 6382 ft | 204 kts | 85° |
| 2026-05-08 15:47 | -15.87209 | -48.06314 | 6067 ft | 195 kts | 86° |
| 2026-05-08 15:48 | -15.87042 | -48.03705 | 5559 ft | 166 kts | 86° |
| 2026-05-08 15:48 | -15.86972 | -48.02580 | 5345 ft | 144 kts | 86° |
| 2026-05-08 15:48 | -15.86904 | -48.01553 | 5172 ft | 143 kts | 85° |
| 2026-05-08 15:49 | -15.86838 | -48.00520 | 4978 ft | 143 kts | 85° |
| 2026-05-08 15:49 | -15.86773 | -47.99495 | 4779 ft | 142 kts | 86° |
| 2026-05-08 15:49 | -15.86709 | -47.98485 | 4584 ft | 141 kts | 86° |
| 2026-05-08 15:49 | -15.86644 | -47.97477 | 4395 ft | 141 kts | 85° |
| 2026-05-08 15:50 | -15.86581 | -47.96449 | 4202 ft | 141 kts | 86° |
| 2026-05-08 15:50 | -15.86513 | -47.95447 | 4015 ft | 140 kts | 87° |
| 2026-05-08 15:50 | -15.86448 | -47.94444 | 3829 ft | 139 kts | 82° |
| 2026-05-08 15:50 | -15.86369 | -47.93439 | 3628 ft | 139 kts | 86° |
| 2026-05-08 15:51 | -15.86312 | -47.92457 | 3461 ft | 129 kts | 85° |
| 2026-05-08 15:51 | -15.86263 | -47.91690 | 3465 ft | 80 kts | 85° |
| 2026-05-08 15:51 | -15.86243 | -47.91328 | 3470 ft | 29 kts | 86° |
| 2026-05-08 15:51 | -15.86290 | -47.91282 | 3473 ft | 6 kts | 259° |
| 2026-05-08 15:52 | -15.86289 | -47.91318 | 3472 ft | 5 kts | 269° |
| 2026-05-08 15:52 | -15.86295 | -47.91370 | 3472 ft | 6 kts | 244° |
| 2026-05-08 15:52 | -15.86327 | -47.91402 | 3472 ft | 6 kts | 223° |
| 2026-05-08 15:52 | -15.86355 | -47.91444 | 3472 ft | 8 kts | 241° |
| 2026-05-08 15:53 | -15.86389 | -47.91508 | 3472 ft | 11 kts | 241° |
| 2026-05-08 15:53 | -15.86440 | -47.91586 | 3472 ft | 14 kts | 234° |
| 2026-05-08 15:53 | -15.86513 | -47.91634 | 3474 ft | 12 kts | 179° |
| 2026-05-08 15:53 | -15.86598 | -47.91629 | 3477 ft | 12 kts | 179° |
| 2026-05-08 15:54 | -15.86653 | -47.91679 | 3477 ft | 11 kts | 262° |
| 2026-05-08 15:54 | -15.86688 | -47.91740 | 3478 ft | 8 kts | 224° |
| 2026-05-08 15:54 | -15.86708 | -47.91765 | 3478 ft | 2 kts | 233° |
| 2026-05-08 15:54 | -15.86710 | -47.91767 | 3478 ft | 0 kts | 233° |